createdAt,value
2022-09-21T00:02:04.975Z,99.90
2022-09-21T00:06:09.027Z,99.90
2022-09-21T00:10:10.209Z,99.90
2022-09-21T00:14:13.757Z,99.90
2022-09-21T00:18:15.037Z,99.90
2022-09-21T00:22:16.928Z,99.90
2022-09-21T00:26:21.089Z,99.90
2022-09-21T00:30:22.192Z,99.90
2022-09-21T00:34:24.086Z,99.90
2022-09-21T00:38:26.515Z,99.90
2022-09-21T00:42:30.911Z,99.90
2022-09-21T00:46:32.205Z,99.90
2022-09-21T00:50:35.670Z,99.90
2022-09-21T00:54:46.296Z,99.90
2022-09-21T00:58:50.297Z,99.90
2022-09-21T01:02:51.899Z,99.90
2022-09-21T01:06:54.983Z,99.90
2022-09-21T01:11:11.617Z,99.90
2022-09-21T01:15:19.586Z,99.90
2022-09-21T01:19:34.050Z,99.90
2022-09-21T01:23:58.883Z,99.90
2022-09-21T01:28:09.820Z,99.90
2022-09-21T01:32:14.811Z,99.90
2022-09-21T01:36:19.815Z,99.90
2022-09-21T01:40:24.959Z,99.90
2022-09-21T01:44:36.445Z,99.90
2022-09-21T01:48:42.562Z,99.90
2022-09-21T01:52:56.663Z,99.90
2022-09-21T01:57:07.760Z,99.90
2022-09-21T02:01:12.203Z,99.90
2022-09-21T02:05:15.720Z,99.90
2022-09-21T02:09:17.512Z,99.90
2022-09-21T02:13:22.687Z,99.90
2022-09-21T02:17:46.074Z,99.90
2022-09-21T02:21:57.447Z,99.90
2022-09-21T02:26:08.090Z,99.90
2022-09-21T02:30:26.595Z,99.90
2022-09-21T02:34:51.683Z,99.90
2022-09-21T02:38:56.691Z,99.90
2022-09-21T02:43:05.403Z,99.90
2022-09-21T02:47:10.418Z,99.90
2022-09-21T02:51:17.156Z,99.90
2022-09-21T02:55:18.748Z,99.90
2022-09-21T02:59:21.944Z,99.90
2022-09-21T03:03:24.332Z,99.90
2022-09-21T03:07:25.550Z,99.90
2022-09-21T03:11:26.643Z,99.90
2022-09-21T03:15:27.828Z,99.90
2022-09-21T03:19:29.132Z,99.90
2022-09-21T03:23:30.329Z,99.90
2022-09-21T03:27:31.626Z,99.90
2022-09-21T03:31:33.452Z,99.90
2022-09-21T03:35:34.879Z,99.90
2022-09-21T03:39:36.067Z,99.90
2022-09-21T03:43:37.256Z,99.90
2022-09-21T03:47:39.255Z,99.90
2022-09-21T03:51:40.456Z,99.90
2022-09-21T03:55:42.147Z,99.90
2022-09-21T03:59:43.309Z,99.90
2022-09-21T04:03:44.555Z,99.90
2022-09-21T04:07:46.528Z,99.90
2022-09-21T04:11:48.008Z,99.90
2022-09-21T04:15:49.279Z,99.90
2022-09-21T04:19:50.496Z,99.90
2022-09-21T04:23:51.778Z,99.90
2022-09-21T04:27:52.990Z,99.90
2022-09-21T04:31:54.212Z,99.90
2022-09-21T04:35:55.604Z,99.90
2022-09-21T04:39:56.672Z,99.90
2022-09-21T04:43:58.279Z,99.90
2022-09-21T04:47:59.479Z,99.90
2022-09-21T04:52:01.183Z,99.90
2022-09-21T04:56:03.763Z,99.90
2022-09-21T05:00:06.146Z,99.90
2022-09-21T05:04:07.242Z,99.90
2022-09-21T05:08:08.419Z,99.90
2022-09-21T05:12:09.505Z,99.90
2022-09-21T05:16:10.991Z,99.90
2022-09-21T05:20:12.174Z,99.90
2022-09-21T05:24:13.348Z,99.90
2022-09-21T05:28:16.052Z,99.90
2022-09-21T05:32:30.659Z,99.90
2022-09-21T05:36:41.225Z,99.90
2022-09-21T05:40:43.062Z,99.90
2022-09-21T05:44:44.617Z,99.90
2022-09-21T05:48:49.572Z,99.90
2022-09-21T05:52:57.584Z,99.90
2022-09-21T05:57:20.280Z,99.90
2022-09-21T06:01:40.446Z,99.90
2022-09-21T06:05:42.928Z,99.90
2022-09-21T06:09:44.106Z,99.90
2022-09-21T06:13:45.198Z,99.90
2022-09-21T06:17:46.379Z,99.90
2022-09-21T06:21:47.569Z,99.90
2022-09-21T06:25:56.059Z,99.90
2022-09-21T06:29:55.668Z,99.90
2022-09-21T06:33:56.890Z,99.90
2022-09-21T06:38:01.876Z,99.90
2022-09-21T06:42:03.334Z,99.90
2022-09-21T06:46:05.117Z,99.90
2022-09-21T06:50:07.229Z,99.90
2022-09-21T06:54:08.656Z,99.90
2022-09-21T06:58:12.246Z,99.90
2022-09-21T07:02:13.374Z,99.90
2022-09-21T07:06:15.016Z,99.90
2022-09-21T07:10:20.528Z,99.90
2022-09-21T07:14:21.844Z,99.90
2022-09-21T07:18:23.149Z,99.90
2022-09-21T07:22:24.340Z,99.90
2022-09-21T07:26:25.673Z,99.90
2022-09-21T07:30:27.156Z,99.90
2022-09-21T07:34:28.356Z,99.90
2022-09-21T07:38:29.543Z,99.90
2022-09-21T07:42:30.641Z,99.90
2022-09-21T07:46:31.813Z,99.90
2022-09-21T07:50:35.681Z,99.90
2022-09-21T07:54:36.884Z,99.90
2022-09-21T07:58:58.120Z,99.90
2022-09-21T08:03:00.763Z,99.90
2022-09-21T08:07:01.937Z,99.90
2022-09-21T08:11:05.155Z,99.90
2022-09-21T08:15:07.562Z,99.90
2022-09-21T08:19:08.803Z,99.90
2022-09-21T08:23:11.174Z,99.90
2022-09-21T08:27:12.364Z,99.90
2022-09-21T08:31:13.485Z,99.90
2022-09-21T08:35:14.760Z,99.90
2022-09-21T08:39:15.854Z,99.90
2022-09-21T08:43:35.503Z,99.90
2022-09-21T08:47:47.904Z,99.90
2022-09-21T08:51:52.913Z,99.90
2022-09-21T08:55:57.495Z,99.90
2022-09-21T09:00:00.225Z,99.90
2022-09-21T09:04:29.365Z,99.90
2022-09-21T09:09:08.097Z,99.90
2022-09-21T09:13:39.047Z,99.90
2022-09-21T09:18:00.587Z,99.90
2022-09-21T09:22:05.121Z,99.90
2022-09-21T09:26:16.174Z,99.90
2022-09-21T09:30:24.985Z,99.90
2022-09-21T09:34:35.580Z,99.90
2022-09-21T09:38:40.582Z,99.90
2022-09-21T09:42:54.608Z,99.90
2022-09-21T09:47:19.222Z,99.90
2022-09-21T09:51:20.409Z,99.90
2022-09-21T09:55:25.266Z,99.90
2022-09-21T09:59:33.280Z,99.90
2022-09-21T10:03:35.550Z,99.90
2022-09-21T10:07:40.084Z,99.90
2022-09-21T10:11:41.302Z,99.90
2022-09-21T10:15:52.108Z,99.90
2022-09-21T10:20:07.456Z,99.90
2022-09-21T10:24:30.368Z,99.90
2022-09-21T10:28:31.897Z,99.90
2022-09-21T10:32:36.119Z,99.90
2022-09-21T10:36:38.188Z,99.90
2022-09-21T10:40:39.725Z,99.40
2022-09-21T10:44:44.406Z,97.70
2022-09-21T10:48:46.003Z,97.60
2022-09-21T10:52:49.106Z,95.70
2022-09-21T10:56:54.225Z,93.50
2022-09-21T11:00:57.635Z,92.10
2022-09-21T11:05:14.338Z,90.70
2022-09-21T11:09:25.358Z,88.60
2022-09-21T11:13:36.089Z,87.60
2022-09-21T11:17:41.080Z,79.20
2022-09-21T11:22:04.413Z,84.30
2022-09-21T11:26:21.179Z,86.20
2022-09-21T11:30:22.680Z,89.50
2022-09-21T11:34:37.167Z,81.60
2022-09-21T11:38:48.125Z,82.50
2022-09-21T11:42:59.146Z,69.10
2022-09-21T11:47:22.492Z,63.70
2022-09-21T11:51:57.253Z,65.40
2022-09-21T11:56:00.802Z,99.90
2022-09-21T12:00:05.955Z,72.90
2022-09-21T12:04:26.813Z,77.50
2022-09-21T12:08:50.395Z,79.10
2022-09-21T12:12:58.426Z,83.70
2022-09-21T12:17:22.711Z,69.60
2022-09-21T12:21:30.878Z,77.80
2022-09-21T12:25:36.001Z,76.70
2022-09-21T12:29:49.718Z,69.60
2022-09-21T12:34:04.040Z,74.50
2022-09-21T12:38:12.057Z,67.00
2022-09-21T12:42:26.367Z,68.70
2022-09-21T12:46:40.316Z,71.30
2022-09-21T12:50:51.483Z,73.20
2022-09-21T12:55:13.546Z,72.30
2022-09-21T12:59:42.842Z,76.60
2022-09-21T13:03:52.639Z,75.80
2022-09-21T13:08:03.888Z,76.40
2022-09-21T13:12:14.870Z,72.90
2022-09-21T13:16:28.976Z,77.10
2022-09-21T13:20:39.121Z,82.10
2022-09-21T13:24:44.806Z,85.60
2022-09-21T13:28:59.458Z,77.30
2022-09-21T13:33:02.968Z,79.50
2022-09-21T13:37:10.951Z,74.50
2022-09-21T13:41:45.366Z,74.40
2022-09-21T13:45:39.696Z,77.40
2022-09-21T13:49:51.446Z,75.50
2022-09-21T13:53:58.324Z,73.20
2022-09-21T13:58:04.396Z,76.20
2022-09-21T14:02:09.448Z,69.80
2022-09-21T14:06:24.380Z,70.80
2022-09-21T14:10:26.884Z,71.30
2022-09-21T14:14:32.204Z,71.10
2022-09-21T14:18:37.584Z,75.40
2022-09-21T14:22:40.870Z,79.90
2022-09-21T14:26:49.055Z,85.30
2022-09-21T14:30:54.100Z,92.70
2022-09-21T14:34:59.117Z,83.40
2022-09-21T14:39:03.601Z,89.10
2022-09-21T14:43:14.754Z,83.40
2022-09-21T14:47:31.809Z,81.50
2022-09-21T14:51:55.744Z,82.70
2022-09-21T14:56:09.381Z,87.40
2022-09-21T15:00:14.392Z,84.70
2022-09-21T15:04:43.922Z,96.90
2022-09-21T15:09:16.404Z,85.50
2022-09-21T15:13:38.067Z,91.70
2022-09-21T15:17:54.030Z,93.10
2022-09-21T15:21:58.512Z,83.90
2022-09-21T15:26:03.513Z,79.20
2022-09-21T15:30:06.287Z,76.40
2022-09-21T15:34:10.359Z,76.80
2022-09-21T15:38:31.885Z,79.30
2022-09-21T15:42:36.418Z,73.90
2022-09-21T15:46:39.418Z,71.10
2022-09-21T15:50:42.891Z,65.50
2022-09-21T15:54:49.500Z,67.90
2022-09-21T15:58:55.490Z,69.70
2022-09-21T16:03:05.400Z,64.70
2022-09-21T16:07:26.039Z,66.60
2022-09-21T16:11:31.034Z,69.20
2022-09-21T16:15:32.434Z,70.30
2022-09-21T16:19:41.442Z,68.80
2022-09-21T16:23:42.662Z,66.50
2022-09-21T16:28:02.628Z,67.30
2022-09-21T16:32:24.930Z,67.20
2022-09-21T16:36:32.714Z,65.80
2022-09-21T16:40:33.920Z,65.90
2022-09-21T16:44:38.387Z,69.10
2022-09-21T16:48:39.673Z,67.80
2022-09-21T16:52:40.848Z,69.70
2022-09-21T16:56:42.112Z,72.00
2022-09-21T17:00:44.857Z,74.20
2022-09-21T17:04:47.312Z,77.70
2022-09-21T17:08:49.098Z,79.70
2022-09-21T17:12:51.304Z,78.40
2022-09-21T17:16:56.671Z,82.50
2022-09-21T17:20:58.469Z,83.10
2022-09-21T17:24:59.630Z,84.20
2022-09-21T17:29:02.934Z,91.80
2022-09-21T17:33:05.390Z,94.90
2022-09-21T17:37:08.796Z,94.60
2022-09-21T17:41:24.555Z,99.40
2022-09-21T17:45:41.483Z,99.70
2022-09-21T17:49:42.923Z,99.90
2022-09-21T17:53:44.324Z,99.90
2022-09-21T17:58:16.584Z,99.90
2022-09-21T18:02:23.088Z,99.90
2022-09-21T18:06:25.304Z,99.90
2022-09-21T18:10:28.859Z,99.90
2022-09-21T18:14:53.630Z,99.90
2022-09-21T18:19:19.349Z,99.90
2022-09-21T18:23:36.753Z,99.90
2022-09-21T18:27:39.090Z,99.90
2022-09-21T18:32:05.776Z,99.90
2022-09-21T18:36:17.413Z,99.90
2022-09-21T18:40:42.525Z,99.90
2022-09-21T18:44:50.236Z,99.90
2022-09-21T18:49:04.875Z,99.90
2022-09-21T18:53:21.718Z,99.90
2022-09-21T18:57:23.455Z,99.90
2022-09-21T19:01:27.484Z,99.90
2022-09-21T19:05:29.292Z,99.90
2022-09-21T19:09:34.648Z,99.90
2022-09-21T19:13:45.264Z,99.90
2022-09-21T19:18:10.229Z,99.90
2022-09-21T19:22:32.416Z,99.90
2022-09-21T19:26:53.525Z,99.90
2022-09-21T19:31:00.541Z,99.90
2022-09-21T19:35:14.795Z,99.90
2022-09-21T19:43:27.756Z,99.90
2022-09-21T19:47:35.920Z,99.90
2022-09-21T19:51:40.906Z,99.90
2022-09-21T19:56:01.441Z,99.90
2022-09-21T20:00:06.212Z,99.90
2022-09-21T20:04:14.285Z,99.90
2022-09-21T20:08:30.895Z,99.90
2022-09-21T20:12:42.222Z,99.90
2022-09-21T20:16:49.771Z,99.90
2022-09-21T20:20:51.274Z,99.90
2022-09-21T20:25:08.320Z,99.90
2022-09-21T20:29:09.771Z,99.90
2022-09-21T20:33:14.160Z,99.90
2022-09-21T20:37:16.561Z,99.90
2022-09-21T20:41:18.420Z,99.90
2022-09-21T20:45:19.700Z,99.90
2022-09-21T20:49:20.891Z,99.90
2022-09-21T20:53:23.726Z,99.90
2022-09-21T20:57:24.882Z,99.90
2022-09-21T21:01:26.473Z,99.90
2022-09-21T21:05:28.571Z,99.90
2022-09-21T21:09:30.319Z,99.90
2022-09-21T21:13:32.350Z,99.90
2022-09-21T21:17:35.149Z,99.90
2022-09-21T21:21:36.339Z,99.90
2022-09-21T21:25:37.471Z,99.90
2022-09-21T21:29:38.653Z,99.90
2022-09-21T21:33:40.418Z,99.90
2022-09-21T21:37:41.593Z,99.90
2022-09-21T21:41:43.480Z,99.90
2022-09-21T21:45:48.736Z,99.90
2022-09-21T21:49:49.881Z,99.90
2022-09-21T21:53:51.316Z,99.90
2022-09-21T21:57:52.459Z,99.90
2022-09-21T22:01:54.084Z,99.90
2022-09-21T22:05:55.652Z,99.90
2022-09-21T22:09:56.847Z,99.90
2022-09-21T22:14:00.569Z,99.90
2022-09-21T22:18:01.733Z,99.90
2022-09-21T22:22:02.931Z,99.90
2022-09-21T22:26:16.160Z,99.90
2022-09-21T22:30:17.324Z,99.90
2022-09-21T22:34:19.495Z,99.90
2022-09-21T22:38:20.737Z,99.90
2022-09-21T22:42:22.622Z,99.90
2022-09-21T22:46:25.938Z,99.90
2022-09-21T22:50:27.157Z,99.90
2022-09-21T22:54:28.353Z,99.90
2022-09-21T22:58:31.454Z,99.90
2022-09-21T23:02:33.764Z,99.90
2022-09-21T23:06:38.768Z,99.90
2022-09-21T23:10:39.935Z,99.90
2022-09-21T23:14:41.040Z,99.90
2022-09-21T23:18:43.533Z,99.90
2022-09-21T23:22:44.859Z,99.90
2022-09-21T23:26:47.081Z,99.90
2022-09-21T23:30:48.344Z,99.90
2022-09-21T23:34:49.766Z,99.90
2022-09-21T23:38:51.591Z,99.90
2022-09-21T23:42:52.774Z,99.90
2022-09-21T23:46:54.019Z,99.90
2022-09-21T23:50:56.357Z,99.90
2022-09-21T23:54:57.558Z,99.90
2022-09-21T23:58:59.514Z,99.90
